METAR Data
IDs: Format: Raw Decoded Include TAF

Data at: 1321 UTC 10 Jul 2020

METAR for:EBCI (Charleroi Arpt, --, BX)
Text:EBCI 101250Z 32009KT 270V010 9999 SCT030 18/11 Q1016 NOSIG
Temperature: 18.0°C ( 64°F)
Dewpoint: 11.0°C ( 52°F) [RH = 64%]
Pressure (altimeter):30.00 inches Hg (1016.0 mb)
Winds:from the NW (320 degrees) at 10 MPH (9 knots; 4.6 m/s)
Visibility:6 or more sm (10+ km)
Ceiling:at least 12,000 feet AGL
Clouds: scattered clouds at 3000 feet AGL

TAF for:EBCI (Charleroi Arpt, --, BX) issued at 1110 UTC 10 Jul 2020
Text:TAF EBCI 101110Z 1012/1118 33009KT 9999 FEW020 SCT025
Forecast period:1200 UTC 10 July 2020 to 1800 UTC 11 July 2020
Forecast type:FROM: standard forecast or significant change
Winds:from the NNW (330 degrees) at 10 MPH (9 knots; 4.6 m/s)
Visibility:6 or more sm (10+ km)
Ceiling:at least 12,000 feet AGL
Clouds: few clouds at 2000 feet AGL, scattered clouds at 2500 feet AGL
Text:PROB30
Forecast period:1200 to 1700 UTC 10 July 2020
Forecast type:TEMPORARY: The following changes expected for less than half the time period
Visibility: 2.80 sm ( 4.51 km)
Clouds:missing
Weather:SHRA (rain showers)
Text:TEMPO 1012/1017 4500 SHRA
Forecast period:0200 to 0600 UTC 11 July 2020
Forecast type:TEMPORARY: The following changes expected for less than half the time period
Visibility: 2.49 sm ( 4.01 km)
Clouds:missing
Weather:BR (mist)